• Join FlightAware (Why Join?)
  • Login
  • US Flag 
09:26AM EDT


 

Airport Tracker/Info


-or-


 

Live Flight TrackerFlight Track Log ✈ ANE8022 ✈ 20-Apr-2013 ✈ LEMD / MAD - LEMG / AGP

Flight Track Log - Related Links

Times and Time Zones

All times are in EDT time to prevent confusion due to time zone crossing. See the ANE8022 flight status page for this flight to view local times or setup timezone preferences in your user account.

Time Position Orientation Groundspeed Altitude Reporting Facility
EDT Latitude Longitude Course Direction KTS MPH feet Rate Location/Type
04:33PM 40.5090 -3.5740 246° West 121 139 2,200  Level FlightAware
04:34PM 40.5280 -3.5750 358° North 132 152 3,200 1,560 Climbing FlightAware
04:34PM 40.5380 -3.5750 360° North 152 175 3,400 900 Climbing FlightAware
04:34PM 40.5570 -3.5770 355° North 172 198 3,800 1,200 Climbing FlightAware
04:35PM 40.5680 -3.5870 325° Northwest 177 204 4,200 1,440 Climbing FlightAware
04:35PM 40.5830 -3.6110 309° West 178 205 4,900 1,500 Climbing FlightAware
04:35PM 40.5980 -3.6310 315° West 178 205 5,600 1,500 Climbing FlightAware
04:36PM 40.6160 -3.6510 320° Northwest 182 209 6,300 1,500 Climbing FlightAware
04:36PM 40.6330 -3.6710 318° Northwest 184 212 7,000 1,500 Climbing FlightAware
04:37PM 40.6530 -3.6940 319° Northwest 186 214 7,700 1,320 Climbing FlightAware
04:37PM 40.6560 -3.7080 286° West 186 214 8,000 1,320 Climbing FlightAware
04:38PM 40.6460 -3.7350 244° Southwest 196 226 8,600 1,260 Climbing FlightAware
04:38PM 40.6290 -3.7640 232° Southwest 195 224 9,200 1,200 Climbing FlightAware
04:38PM 40.6190 -3.7750 220° Southwest 205 236 9,500 1,200 Climbing FlightAware
04:38PM 40.6090 -3.7790 197° South 211 243 9,700 1,020 Climbing FlightAware
04:39PM 40.5850 -3.7610 150° Southeast 215 247 10,200 1,020 Climbing FlightAware
04:40PM 40.5610 -3.7190 127° Southeast 220 253 10,900 1,020 Climbing FlightAware
04:40PM 40.5330 -3.6690 126° Southeast 221 254 11,700 1,020 Climbing FlightAware
04:41PM 40.5080 -3.6260 127° Southeast 222 255 12,400 900 Climbing FlightAware
04:42PM 40.4810 -3.5770 126° Southeast 231 266 13,000 900 Climbing FlightAware
04:42PM 40.4680 -3.5610 137° Southeast 230 265 13,300 960 Climbing FlightAware
04:42PM 40.4580 -3.5560 159° South 225 259 13,400 720 Climbing FlightAware
04:43PM 40.4130 -3.5490 173° South 225 259 14,000 720 Climbing FlightAware
04:44PM 40.3700 -3.5440 175° South 228 262 14,500 840 Climbing FlightAware
04:44PM 40.3240 -3.5370 173° South 227 261 15,200 840 Climbing FlightAware
04:45PM 40.2970 -3.5430 190° South 219 252 15,500 600 Climbing FlightAware
04:45PM 40.2570 -3.5570 195° South 226 260 15,900 540 Climbing FlightAware
04:46PM 40.2140 -3.5730 196° South 228 262 16,300 600 Climbing FlightAware
04:47PM 40.1720 -3.5880 195° South 229 264 16,800 660 Climbing FlightAware
04:48PM 40.1240 -3.6050 195° South 228 262 17,300 600 Climbing FlightAware
04:48PM 40.0830 -3.6200 196° South 227 261 17,700 600 Climbing FlightAware
04:49PM 40.0420 -3.6340 195° South 228 262 18,100 540 Climbing FlightAware
04:50PM 39.9990 -3.6500 196° South 227 261 18,500 540 Climbing FlightAware
04:50PM 39.9580 -3.6640 195° South 229 264 18,900 540 Climbing FlightAware
04:51PM 39.9100 -3.6810 195° South 231 266 19,300 480 Climbing FlightAware
04:52PM 39.8690 -3.6960 196° South 231 266 19,600 420 Climbing FlightAware
04:52PM 39.8270 -3.7110 195° South 233 268 19,900 420 Climbing FlightAware
04:53PM 39.7810 -3.7270 195° South 236 272 20,200 300 Climbing FlightAware
04:54PM 39.7390 -3.7420 195° South 238 274 20,400 300 Climbing FlightAware
04:55PM 39.6880 -3.7600 195° South 243 280 20,700 300 Climbing FlightAware
04:55PM 39.6440 -3.7760 196° South 245 282 20,900 360 Climbing FlightAware
04:56PM 39.6010 -3.7910 195° South 245 282 21,200 300 Climbing FlightAware
04:57PM 39.5520 -3.8080 195° South 247 284 21,400 300 Climbing FlightAware
04:57PM 39.5110 -3.8240 197° South 236 272 21,700 420 Climbing FlightAware
04:58PM 39.4960 -3.8370 214° Southwest 228 262 21,800 300 Climbing FlightAware
04:58PM 39.4660 -3.8770 226° Southwest 226 260 22,000 300 Climbing FlightAware
04:59PM 39.4340 -3.9180 225° Southwest 226 260 22,300 300 Climbing FlightAware
05:00PM 39.4050 -3.9570 226° Southwest 226 260 22,500 240 Climbing FlightAware
05:01PM 39.3670 -4.0060 225° Southwest 225 259 22,700 240 Climbing FlightAware
05:01PM 39.3470 -4.0310 224° Southwest 226 260 22,800 240 Climbing FlightAware
05:02PM 39.3140 -4.0740 225° Southwest 228 262 23,000 120 Climbing FlightAware
05:02PM 39.2850 -4.1120 225° Southwest 232 267 23,000  Level FlightAware
05:03PM 39.2490 -4.1580 225° Southwest 239 275 23,000  Level FlightAware
05:04PM 39.2180 -4.1990 226° Southwest 242 278 23,000  Level FlightAware
05:05PM 39.1820 -4.2450 225° Southwest 243 280 23,000  Level FlightAware
05:05PM 39.1510 -4.2840 224° Southwest 243 280 23,000  Level FlightAware
05:06PM 39.1150 -4.3220 219° Southwest 256 295 23,000  Level FlightAware
05:07PM 39.0610 -4.3400 195° South 261 300 23,000  Level FlightAware
05:07PM 39.0140 -4.3540 193° South 261 300 23,000  Level FlightAware
05:08PM 38.9630 -4.3710 195° South 262 302 23,000  Level FlightAware
05:09PM 38.9160 -4.3850 193° South 263 303 23,000  Level FlightAware
05:09PM 38.8700 -4.4000 194° South 263 303 23,000  Level FlightAware
05:10PM 38.8150 -4.4170 194° South 263 303 23,000  Level FlightAware
05:11PM 38.7640 -4.4330 194° South 265 305 23,000  Level FlightAware
05:11PM 38.7200 -4.4470 194° South 266 306 23,000  Level FlightAware
05:12PM 38.6680 -4.4630 194° South 267 307 23,000  Level FlightAware
05:13PM 38.6220 -4.4780 194° South 268 308 23,000  Level FlightAware
05:13PM 38.5740 -4.4930 194° South 269 310 23,000  Level FlightAware
05:14PM 38.5130 -4.5120 194° South 269 310 23,000  Level FlightAware
05:15PM 38.4650 -4.5260 193° South 269 310 23,000  Level FlightAware
05:16PM 38.4240 -4.5380 193° South 269 310 23,000  Level FlightAware
05:16PM 38.3830 -4.5500 193° South 269 310 23,000  Level FlightAware
05:17PM 38.3420 -4.5620 193° South 269 310 23,000  Level FlightAware
05:18PM 38.3000 -4.5740 193° South 269 310 23,000 -780 Level FlightAware
05:20PM 38.2126 -4.5699 178° South  Level Estimated
05:21PM 38.1640 -4.5676 178° South  Level Estimated
05:21PM 38.1510 -4.6240 178° South 23,000  Level FlightAware
05:23PM 38.0637 -4.6165 176° South  Level Estimated
05:24PM 38.0152 -4.6123 176° South  Level Estimated
05:25PM 37.9667 -4.6081 176° South  Level Estimated
05:26PM 37.9182 -4.6040 176° South  Level Estimated
05:26PM 37.5790 -4.7990 176° South 315 362 15,800  Level FlightAware
05:27PM 37.8697 -4.5998 176° South  Level Estimated
05:27PM 37.5250 -4.8150 193° South 315 362 15,800  Level FlightAware
05:28PM 37.4650 -4.8320 193° South 315 362 15,800  Level FlightAware
05:29PM 37.4160 -4.8460 193° South 315 362 15,800  Level FlightAware
05:29PM 37.3680 -4.8600 193° South 315 362 15,800  Level FlightAware
05:30PM 37.3200 -4.8740 193° South 315 362 15,800 -5,520 Level FlightAware
05:30PM 37.2480 -4.8550 168° South 293 337 10,300 -5,820 Descending FlightAware
05:31PM 37.1990 -4.8530 178° South 294 338 10,000 -360 Descending FlightAware
05:31PM 37.1870 -4.8520 176° South 294 338 10,000  Level FlightAware
05:32PM 37.1520 -4.8510 179° South 294 338 10,000  Level FlightAware
05:32PM 37.1180 -4.8490 177° South 294 338 10,000 -2,340 Level FlightAware
05:33PM 37.0800 -4.8460 176° South 243 280 7,700 -4,140 Descending FlightAware
05:33PM 37.0750 -4.8460 180° South 245 282 7,600 -1,200 Descending FlightAware
05:35PM 36.9998 -4.7805 145° Southeast  Level Estimated
05:36PM 36.9599 -4.7458 145° Southeast  Level Estimated
05:37PM 36.9200 -4.7111 145° Southeast  Level Estimated
05:38PM 36.8801 -4.6764 145° Southeast  Level Estimated
05:39PM 36.8401 -4.6418 145° Southeast  Level Estimated
05:40PM 36.8001 -4.6072 145° Southeast  Level Estimated
05:41PM 36.7602 -4.5727 145° Southeast  Level Estimated
05:42PM 36.7202 -4.5381 145° Southeast  Level Estimated
05:43PM 36.6802 -4.5037 145° Southeast  Level Estimated
05:44PM 36.6749 -4.4991 145° Southeast  Level Estimated
05:45PM 36.6749 -4.4991 90° East  Level Estimated
05:46PM 36.6749 -4.4991 90° East  Level Estimated
05:47PM 36.6749 -4.4991 90° East  Level Estimated
05:48PM 36.6749 -4.4991 90° East  Level Estimated
05:49PM 36.6749 -4.4991 90° East  Level Estimated
05:50PM 36.6749 -4.4991 90° East  Level Estimated
05:51PM 36.6749 -4.4991 90° East  Level Estimated
05:52PM 36.6749 -4.4991 90° East  Level Estimated